This is the latest recevied weather packets stored in our database for station/object YO2MAS-13. If no packets are shown the sender has not sent any weather packets the latest 10 day(s).
| Time | Temp. | Humidity | Pressure | Rain* | Wind** | Luminosity | Snow |
|---|---|---|---|---|---|---|---|
| 1778020274 | 17.22° C | 83% | 1015.4 hPa | - | - | - | - |
| 1778019374 | 16.67° C | 85% | 1015.1 hPa | - | - | - | - |
| 1778018473 | 18.33° C | 57% | 1014.6 hPa | - | - | - | - |
| 1778017573 | 18.33° C | 60% | 1014.5 hPa | - | - | - | - |
| 1778016675 | 18.89° C | 60% | 1014.5 hPa | - | - | - | - |
| 1778015773 | 18.33° C | 68% | 1014.5 hPa | - | - | - | - |
| 1778014873 | 19.44° C | 53% | 1014.3 hPa | - | - | - | - |
| 1778013973 | 20.56° C | 48% | 1014.3 hPa | - | - | - | - |
| 1778013073 | 20.56° C | 49% | 1014.2 hPa | - | - | - | - |
| 1778012173 | 20.56° C | 48% | 1014.1 hPa | - | - | - | - |
| 1778011637 | 21.11° C | 48% | 1014 hPa | - | - | - | - |
| 1778011273 | 21.11° C | 48% | 1014 hPa | - | - | - | - |
| 1778010373 | 21.11° C | 48% | 1014 hPa | - | - | - | - |
| 1778009473 | 21.11° C | 47% | 1013.9 hPa | - | - | - | - |
| 1778008657 | 21.67° C | 45% | 1013.8 hPa | - | - | - | - |
| 1778008573 | 21.67° C | 45% | 1013.8 hPa | - | - | - | - |
| 1778007673 | 22.22° C | 44% | 1013.7 hPa | - | - | - | - |
| 1778006773 | 23.33° C | 42% | 1013.5 hPa | - | - | - | - |
| 1778005873 | 23.89° C | 43% | 1013.5 hPa | - | - | - | - |
| 1778005008 | 23.89° C | 41% | 1013.3 hPa | - | - | - | - |
| 1778004973 | 23.89° C | 41% | 1013.3 hPa | - | - | - | - |
| 1778004715 | 23.89° C | 37% | 1013.3 hPa | - | - | - | - |
| 1778004069 | 23.89° C | 37% | 1013.3 hPa | - | - | - | - |
| 1778003420 | 25° C | 35% | 1013.2 hPa | - | - | - | - |
| 1778003169 | 25° C | 35% | 1013.2 hPa | - | - | - | - |
* Rain since midnight (hover to see other rain measurements)
** Current wind speed in m/s (hover to see current wind gust speed)